sensor_id;sensor_type;location;lat;lon;timestamp;temperature;humidity
12604;DHT22;6367;52.508;13.284;2022-10-16T00:00:40;18.40;99.90
12604;DHT22;6367;52.508;13.284;2022-10-16T00:03:06;18.40;99.90
12604;DHT22;6367;52.508;13.284;2022-10-16T00:05:33;18.40;99.90
12604;DHT22;6367;52.508;13.284;2022-10-16T00:07:58;18.40;99.90
12604;DHT22;6367;52.508;13.284;2022-10-16T00:10:24;17.90;99.90
12604;DHT22;6367;52.508;13.284;2022-10-16T00:12:49;18.40;99.90
12604;DHT22;6367;52.508;13.284;2022-10-16T00:15:15;18.50;99.90
12604;DHT22;6367;52.508;13.284;2022-10-16T00:17:41;18.40;99.90
12604;DHT22;6367;52.508;13.284;2022-10-16T00:20:07;18.40;99.90
12604;DHT22;6367;52.508;13.284;2022-10-16T00:22:33;18.40;99.90
12604;DHT22;6367;52.508;13.284;2022-10-16T00:24:58;18.40;99.90
12604;DHT22;6367;52.508;13.284;2022-10-16T00:27:24;19.00;99.90
12604;DHT22;6367;52.508;13.284;2022-10-16T00:29:53;18.50;99.90
12604;DHT22;6367;52.508;13.284;2022-10-16T00:32:19;18.50;99.90
12604;DHT22;6367;52.508;13.284;2022-10-16T00:34:45;18.40;99.90
12604;DHT22;6367;52.508;13.284;2022-10-16T00:37:11;18.40;99.90
12604;DHT22;6367;52.508;13.284;2022-10-16T00:39:37;18.50;99.90
12604;DHT22;6367;52.508;13.284;2022-10-16T00:42:03;18.50;99.90
12604;DHT22;6367;52.508;13.284;2022-10-16T00:44:53;18.50;99.90
12604;DHT22;6367;52.508;13.284;2022-10-16T00:47:37;18.40;99.90
12604;DHT22;6367;52.508;13.284;2022-10-16T00:50:11;18.50;99.90
12604;DHT22;6367;52.508;13.284;2022-10-16T00:52:43;18.50;99.90
12604;DHT22;6367;52.508;13.284;2022-10-16T00:55:09;18.50;99.90
12604;DHT22;6367;52.508;13.284;2022-10-16T00:57:36;18.50;99.90
12604;DHT22;6367;52.508;13.284;2022-10-16T01:00:04;18.50;99.90
12604;DHT22;6367;52.508;13.284;2022-10-16T01:02:30;18.50;99.90
12604;DHT22;6367;52.508;13.284;2022-10-16T01:04:56;18.80;99.90
12604;DHT22;6367;52.508;13.284;2022-10-16T01:07:53;18.50;99.90
12604;DHT22;6367;52.508;13.284;2022-10-16T01:13:15;18.50;99.90
12604;DHT22;6367;52.508;13.284;2022-10-16T01:16:01;19.00;99.90
12604;DHT22;6367;52.508;13.284;2022-10-16T01:18:43;18.50;99.90
12604;DHT22;6367;52.508;13.284;2022-10-16T01:21:22;18.60;99.90
12604;DHT22;6367;52.508;13.284;2022-10-16T01:27:04;18.50;99.90
12604;DHT22;6367;52.508;13.284;2022-10-16T01:30:01;18.60;99.90
12604;DHT22;6367;52.508;13.284;2022-10-16T01:33:20;18.60;99.90
12604;DHT22;6367;52.508;13.284;2022-10-16T01:40:27;18.70;99.90
12604;DHT22;6367;52.508;13.284;2022-10-16T01:43:01;18.80;99.90
12604;DHT22;6367;52.508;13.284;2022-10-16T01:45:30;18.70;99.90
12604;DHT22;6367;52.508;13.284;2022-10-16T01:47:58;18.60;99.90
12604;DHT22;6367;52.508;13.284;2022-10-16T01:50:26;18.60;99.90
12604;DHT22;6367;52.508;13.284;2022-10-16T01:52:53;18.60;99.90
12604;DHT22;6367;52.508;13.284;2022-10-16T01:55:32;18.60;99.90
12604;DHT22;6367;52.508;13.284;2022-10-16T01:58:01;19.20;99.90
12604;DHT22;6367;52.508;13.284;2022-10-16T02:00:28;18.60;99.90
12604;DHT22;6367;52.508;13.284;2022-10-16T02:02:55;18.70;99.90
12604;DHT22;6367;52.508;13.284;2022-10-16T02:05:38;18.60;99.90
12604;DHT22;6367;52.508;13.284;2022-10-16T02:08:05;18.60;99.90
12604;DHT22;6367;52.508;13.284;2022-10-16T02:10:32;18.60;99.90
12604;DHT22;6367;52.508;13.284;2022-10-16T02:13:12;18.60;99.90
12604;DHT22;6367;52.508;13.284;2022-10-16T02:15:40;18.60;99.90
12604;DHT22;6367;52.508;13.284;2022-10-16T02:18:06;18.60;99.90
12604;DHT22;6367;52.508;13.284;2022-10-16T02:20:55;18.50;99.90
12604;DHT22;6367;52.508;13.284;2022-10-16T02:23:45;18.50;99.90
12604;DHT22;6367;52.508;13.284;2022-10-16T02:26:17;18.60;99.90
12604;DHT22;6367;52.508;13.284;2022-10-16T02:28:52;18.60;99.90
12604;DHT22;6367;52.508;13.284;2022-10-16T02:31:23;18.60;99.90
12604;DHT22;6367;52.508;13.284;2022-10-16T02:33:53;18.60;99.90
12604;DHT22;6367;52.508;13.284;2022-10-16T02:36:20;18.60;99.90
12604;DHT22;6367;52.508;13.284;2022-10-16T02:38:46;19.20;99.90
12604;DHT22;6367;52.508;13.284;2022-10-16T02:41:13;19.10;99.90
12604;DHT22;6367;52.508;13.284;2022-10-16T02:43:38;18.60;99.90
12604;DHT22;6367;52.508;13.284;2022-10-16T02:46:04;18.60;99.90
12604;DHT22;6367;52.508;13.284;2022-10-16T02:48:30;18.60;99.90
12604;DHT22;6367;52.508;13.284;2022-10-16T02:50:55;18.80;99.90
12604;DHT22;6367;52.508;13.284;2022-10-16T02:53:22;18.90;99.90
12604;DHT22;6367;52.508;13.284;2022-10-16T02:55:48;18.70;99.90
12604;DHT22;6367;52.508;13.284;2022-10-16T02:58:13;18.70;99.90
12604;DHT22;6367;52.508;13.284;2022-10-16T03:00:39;19.00;99.90
12604;DHT22;6367;52.508;13.284;2022-10-16T03:03:05;18.70;99.90
12604;DHT22;6367;52.508;13.284;2022-10-16T03:05:30;18.70;99.90
12604;DHT22;6367;52.508;13.284;2022-10-16T03:07:56;18.80;99.90
12604;DHT22;6367;52.508;13.284;2022-10-16T03:10:21;18.70;99.90
12604;DHT22;6367;52.508;13.284;2022-10-16T03:12:47;18.70;99.90
12604;DHT22;6367;52.508;13.284;2022-10-16T03:15:12;18.70;99.90
12604;DHT22;6367;52.508;13.284;2022-10-16T03:17:38;18.70;99.90
12604;DHT22;6367;52.508;13.284;2022-10-16T03:20:04;18.60;99.90
12604;DHT22;6367;52.508;13.284;2022-10-16T03:22:29;18.60;99.90
12604;DHT22;6367;52.508;13.284;2022-10-16T03:24:55;18.80;99.90
12604;DHT22;6367;52.508;13.284;2022-10-16T03:27:20;18.90;99.90
12604;DHT22;6367;52.508;13.284;2022-10-16T03:29:46;19.20;99.90
12604;DHT22;6367;52.508;13.284;2022-10-16T03:32:12;18.70;99.90
12604;DHT22;6367;52.508;13.284;2022-10-16T03:34:37;18.60;99.90
12604;DHT22;6367;52.508;13.284;2022-10-16T03:37:03;18.60;99.90
12604;DHT22;6367;52.508;13.284;2022-10-16T03:39:28;18.50;99.90
12604;DHT22;6367;52.508;13.284;2022-10-16T03:41:54;18.50;99.90
12604;DHT22;6367;52.508;13.284;2022-10-16T03:44:19;18.40;99.90
12604;DHT22;6367;52.508;13.284;2022-10-16T03:46:45;18.40;99.90
12604;DHT22;6367;52.508;13.284;2022-10-16T03:49:10;18.70;99.90
12604;DHT22;6367;52.508;13.284;2022-10-16T03:51:36;18.40;99.90
12604;DHT22;6367;52.508;13.284;2022-10-16T03:54:02;18.40;99.90
12604;DHT22;6367;52.508;13.284;2022-10-16T03:56:28;18.40;99.90
12604;DHT22;6367;52.508;13.284;2022-10-16T03:58:53;18.40;99.90
12604;DHT22;6367;52.508;13.284;2022-10-16T04:01:19;18.50;99.90
12604;DHT22;6367;52.508;13.284;2022-10-16T04:03:44;18.40;99.90
12604;DHT22;6367;52.508;13.284;2022-10-16T04:06:10;18.40;99.90
12604;DHT22;6367;52.508;13.284;2022-10-16T04:08:35;18.80;99.90
12604;DHT22;6367;52.508;13.284;2022-10-16T04:11:02;18.40;99.90
12604;DHT22;6367;52.508;13.284;2022-10-16T04:13:28;18.30;99.90
12604;DHT22;6367;52.508;13.284;2022-10-16T04:15:54;18.80;99.90
12604;DHT22;6367;52.508;13.284;2022-10-16T04:18:19;18.90;99.90
12604;DHT22;6367;52.508;13.284;2022-10-16T04:20:45;18.40;99.90
12604;DHT22;6367;52.508;13.284;2022-10-16T04:23:11;18.30;99.90
12604;DHT22;6367;52.508;13.284;2022-10-16T04:25:36;18.20;99.90
12604;DHT22;6367;52.508;13.284;2022-10-16T04:28:02;18.30;99.90
12604;DHT22;6367;52.508;13.284;2022-10-16T04:30:28;18.20;99.90
12604;DHT22;6367;52.508;13.284;2022-10-16T04:32:53;18.10;99.90
12604;DHT22;6367;52.508;13.284;2022-10-16T04:35:20;18.70;99.90
12604;DHT22;6367;52.508;13.284;2022-10-16T04:37:46;18.10;99.90
12604;DHT22;6367;52.508;13.284;2022-10-16T04:40:13;18.10;99.90
12604;DHT22;6367;52.508;13.284;2022-10-16T04:42:39;18.10;99.90
12604;DHT22;6367;52.508;13.284;2022-10-16T04:45:05;18.60;99.90
12604;DHT22;6367;52.508;13.284;2022-10-16T04:47:31;18.00;99.90
12604;DHT22;6367;52.508;13.284;2022-10-16T04:49:57;18.00;99.90
12604;DHT22;6367;52.508;13.284;2022-10-16T04:52:24;18.00;99.90
12604;DHT22;6367;52.508;13.284;2022-10-16T04:54:50;18.00;99.90
12604;DHT22;6367;52.508;13.284;2022-10-16T04:57:17;18.00;99.90
12604;DHT22;6367;52.508;13.284;2022-10-16T04:59:42;18.00;99.90
12604;DHT22;6367;52.508;13.284;2022-10-16T05:02:08;18.10;99.90
12604;DHT22;6367;52.508;13.284;2022-10-16T05:04:34;18.50;99.90
12604;DHT22;6367;52.508;13.284;2022-10-16T05:06:59;18.20;99.90
12604;DHT22;6367;52.508;13.284;2022-10-16T05:09:25;18.00;99.90
12604;DHT22;6367;52.508;13.284;2022-10-16T05:11:51;18.00;99.90
12604;DHT22;6367;52.508;13.284;2022-10-16T05:14:16;18.10;99.90
12604;DHT22;6367;52.508;13.284;2022-10-16T05:16:42;18.00;99.90
12604;DHT22;6367;52.508;13.284;2022-10-16T05:19:07;18.00;99.90
12604;DHT22;6367;52.508;13.284;2022-10-16T05:21:33;18.00;99.90
12604;DHT22;6367;52.508;13.284;2022-10-16T05:23:58;18.00;99.90
12604;DHT22;6367;52.508;13.284;2022-10-16T05:26:24;17.90;99.90
12604;DHT22;6367;52.508;13.284;2022-10-16T05:28:50;17.90;99.90
12604;DHT22;6367;52.508;13.284;2022-10-16T05:31:15;17.90;99.90
12604;DHT22;6367;52.508;13.284;2022-10-16T05:33:41;17.80;99.90
12604;DHT22;6367;52.508;13.284;2022-10-16T05:36:08;17.80;99.90
12604;DHT22;6367;52.508;13.284;2022-10-16T05:38:35;17.80;99.90
12604;DHT22;6367;52.508;13.284;2022-10-16T05:41:01;17.70;99.90
12604;DHT22;6367;52.508;13.284;2022-10-16T05:43:31;17.80;99.90
12604;DHT22;6367;52.508;13.284;2022-10-16T05:46:03;18.10;99.90
12604;DHT22;6367;52.508;13.284;2022-10-16T05:48:29;17.80;99.90
12604;DHT22;6367;52.508;13.284;2022-10-16T05:50:59;17.80;99.90
12604;DHT22;6367;52.508;13.284;2022-10-16T05:53:24;18.50;99.90
12604;DHT22;6367;52.508;13.284;2022-10-16T05:55:54;17.80;99.90
12604;DHT22;6367;52.508;13.284;2022-10-16T05:58:21;17.80;99.90
12604;DHT22;6367;52.508;13.284;2022-10-16T06:01:13;17.80;99.90
12604;DHT22;6367;52.508;13.284;2022-10-16T06:03:39;17.70;99.90
12604;DHT22;6367;52.508;13.284;2022-10-16T06:06:15;17.70;99.90
12604;DHT22;6367;52.508;13.284;2022-10-16T06:08:43;17.70;99.90
12604;DHT22;6367;52.508;13.284;2022-10-16T06:11:12;17.70;99.90
12604;DHT22;6367;52.508;13.284;2022-10-16T06:13:38;17.80;99.90
12604;DHT22;6367;52.508;13.284;2022-10-16T06:16:04;17.70;99.90
12604;DHT22;6367;52.508;13.284;2022-10-16T06:18:30;17.80;99.90
12604;DHT22;6367;52.508;13.284;2022-10-16T06:20:56;18.10;99.90
12604;DHT22;6367;52.508;13.284;2022-10-16T06:23:22;17.80;99.90
12604;DHT22;6367;52.508;13.284;2022-10-16T06:25:48;17.80;99.90
12604;DHT22;6367;52.508;13.284;2022-10-16T06:28:14;18.10;99.90
12604;DHT22;6367;52.508;13.284;2022-10-16T06:30:40;18.00;99.90
12604;DHT22;6367;52.508;13.284;2022-10-16T06:33:06;17.90;99.90
12604;DHT22;6367;52.508;13.284;2022-10-16T06:35:31;18.00;99.90
12604;DHT22;6367;52.508;13.284;2022-10-16T06:37:57;17.90;99.90
12604;DHT22;6367;52.508;13.284;2022-10-16T06:40:23;18.50;99.90
12604;DHT22;6367;52.508;13.284;2022-10-16T06:42:49;17.90;99.90
12604;DHT22;6367;52.508;13.284;2022-10-16T06:45:15;17.90;99.90
12604;DHT22;6367;52.508;13.284;2022-10-16T06:47:41;17.90;99.90
12604;DHT22;6367;52.508;13.284;2022-10-16T06:50:07;18.00;99.90
12604;DHT22;6367;52.508;13.284;2022-10-16T06:52:33;18.00;99.90
12604;DHT22;6367;52.508;13.284;2022-10-16T06:54:59;18.50;99.90
12604;DHT22;6367;52.508;13.284;2022-10-16T06:57:25;18.00;99.90
12604;DHT22;6367;52.508;13.284;2022-10-16T06:59:50;18.10;99.90
12604;DHT22;6367;52.508;13.284;2022-10-16T07:02:16;18.10;99.90
12604;DHT22;6367;52.508;13.284;2022-10-16T07:04:41;18.20;99.90
12604;DHT22;6367;52.508;13.284;2022-10-16T07:07:07;18.40;99.90
12604;DHT22;6367;52.508;13.284;2022-10-16T07:09:32;18.30;99.90
12604;DHT22;6367;52.508;13.284;2022-10-16T07:11:58;18.30;99.90
12604;DHT22;6367;52.508;13.284;2022-10-16T07:14:24;18.30;99.90
12604;DHT22;6367;52.508;13.284;2022-10-16T07:16:50;18.50;99.90
12604;DHT22;6367;52.508;13.284;2022-10-16T07:19:15;18.40;99.90
12604;DHT22;6367;52.508;13.284;2022-10-16T07:21:43;18.60;99.90
12604;DHT22;6367;52.508;13.284;2022-10-16T07:24:18;18.50;99.90
12604;DHT22;6367;52.508;13.284;2022-10-16T07:26:45;18.50;99.90
12604;DHT22;6367;52.508;13.284;2022-10-16T07:29:20;18.60;99.90
12604;DHT22;6367;52.508;13.284;2022-10-16T07:31:47;18.60;99.90
12604;DHT22;6367;52.508;13.284;2022-10-16T07:34:17;18.60;99.90
12604;DHT22;6367;52.508;13.284;2022-10-16T07:36:43;18.70;99.90
12604;DHT22;6367;52.508;13.284;2022-10-16T07:39:22;18.70;99.90
12604;DHT22;6367;52.508;13.284;2022-10-16T07:41:47;18.80;99.90
12604;DHT22;6367;52.508;13.284;2022-10-16T07:44:13;18.70;99.90
12604;DHT22;6367;52.508;13.284;2022-10-16T07:46:40;18.80;99.90
12604;DHT22;6367;52.508;13.284;2022-10-16T07:49:06;18.80;99.90
12604;DHT22;6367;52.508;13.284;2022-10-16T07:51:31;18.70;99.90
12604;DHT22;6367;52.508;13.284;2022-10-16T07:53:57;18.80;99.90
12604;DHT22;6367;52.508;13.284;2022-10-16T07:56:24;18.80;99.90
12604;DHT22;6367;52.508;13.284;2022-10-16T07:58:50;18.90;99.90
12604;DHT22;6367;52.508;13.284;2022-10-16T08:01:17;19.30;99.90
12604;DHT22;6367;52.508;13.284;2022-10-16T08:03:52;19.00;99.90
12604;DHT22;6367;52.508;13.284;2022-10-16T08:06:20;19.00;99.90
12604;DHT22;6367;52.508;13.284;2022-10-16T08:08:46;19.00;99.90
12604;DHT22;6367;52.508;13.284;2022-10-16T08:11:12;19.10;99.90
12604;DHT22;6367;52.508;13.284;2022-10-16T08:13:39;19.10;99.90
12604;DHT22;6367;52.508;13.284;2022-10-16T08:16:05;19.10;99.90
12604;DHT22;6367;52.508;13.284;2022-10-16T08:18:37;19.10;99.90
12604;DHT22;6367;52.508;13.284;2022-10-16T08:21:03;19.20;99.90
12604;DHT22;6367;52.508;13.284;2022-10-16T08:23:29;19.20;99.90
12604;DHT22;6367;52.508;13.284;2022-10-16T08:26:01;19.30;99.90
12604;DHT22;6367;52.508;13.284;2022-10-16T08:28:27;19.30;99.90
12604;DHT22;6367;52.508;13.284;2022-10-16T08:30:52;19.40;99.90
12604;DHT22;6367;52.508;13.284;2022-10-16T08:33:18;19.40;99.90
12604;DHT22;6367;52.508;13.284;2022-10-16T08:35:51;20.20;99.90
12604;DHT22;6367;52.508;13.284;2022-10-16T08:38:16;19.50;99.90
12604;DHT22;6367;52.508;13.284;2022-10-16T08:40:42;19.60;99.90
12604;DHT22;6367;52.508;13.284;2022-10-16T08:48:53;19.50;99.90
12604;DHT22;6367;52.508;13.284;2022-10-16T08:51:31;19.60;99.90
12604;DHT22;6367;52.508;13.284;2022-10-16T08:53:59;19.60;99.90
12604;DHT22;6367;52.508;13.284;2022-10-16T08:56:26;19.60;99.90
12604;DHT22;6367;52.508;13.284;2022-10-16T08:58:53;19.70;99.90
12604;DHT22;6367;52.508;13.284;2022-10-16T09:01:21;19.70;99.90
12604;DHT22;6367;52.508;13.284;2022-10-16T09:06:30;19.80;99.90
12604;DHT22;6367;52.508;13.284;2022-10-16T09:17:30;20.70;99.90
12604;DHT22;6367;52.508;13.284;2022-10-16T09:22:42;20.90;99.90
12604;DHT22;6367;52.508;13.284;2022-10-16T09:25:13;20.60;99.90
12604;DHT22;6367;52.508;13.284;2022-10-16T09:27:39;20.60;99.90
12604;DHT22;6367;52.508;13.284;2022-10-16T09:30:17;20.70;99.90
12604;DHT22;6367;52.508;13.284;2022-10-16T09:32:44;20.40;99.90
12604;DHT22;6367;52.508;13.284;2022-10-16T09:35:22;21.00;99.90
12604;DHT22;6367;52.508;13.284;2022-10-16T09:37:54;21.00;99.90
12604;DHT22;6367;52.508;13.284;2022-10-16T09:40:30;21.60;99.90
12604;DHT22;6367;52.508;13.284;2022-10-16T09:46:02;21.20;99.90
12604;DHT22;6367;52.508;13.284;2022-10-16T09:48:44;21.30;99.90
12604;DHT22;6367;52.508;13.284;2022-10-16T09:51:22;21.20;99.90
12604;DHT22;6367;52.508;13.284;2022-10-16T09:53:48;21.20;99.90
12604;DHT22;6367;52.508;13.284;2022-10-16T09:58:52;21.40;99.90
12604;DHT22;6367;52.508;13.284;2022-10-16T10:01:19;21.30;99.90
12604;DHT22;6367;52.508;13.284;2022-10-16T10:03:46;21.30;99.90
12604;DHT22;6367;52.508;13.284;2022-10-16T10:06:25;21.30;99.90
12604;DHT22;6367;52.508;13.284;2022-10-16T10:09:02;21.30;99.90
12604;DHT22;6367;52.508;13.284;2022-10-16T10:11:57;21.30;99.90
12604;DHT22;6367;52.508;13.284;2022-10-16T10:14:43;21.40;99.90
12604;DHT22;6367;52.508;13.284;2022-10-16T10:17:16;21.40;99.90
12604;DHT22;6367;52.508;13.284;2022-10-16T10:22:40;21.40;99.90
12604;DHT22;6367;52.508;13.284;2022-10-16T10:30:29;21.40;99.90
12604;DHT22;6367;52.508;13.284;2022-10-16T10:33:20;21.30;99.90
12604;DHT22;6367;52.508;13.284;2022-10-16T10:38:46;21.50;99.90
12604;DHT22;6367;52.508;13.284;2022-10-16T10:47:09;21.50;99.90
12604;DHT22;6367;52.508;13.284;2022-10-16T10:55:59;21.70;99.90
12604;DHT22;6367;52.508;13.284;2022-10-16T10:58:50;21.90;99.90
12604;DHT22;6367;52.508;13.284;2022-10-16T11:02:00;22.10;99.90
12604;DHT22;6367;52.508;13.284;2022-10-16T11:04:46;22.20;99.90
12604;DHT22;6367;52.508;13.284;2022-10-16T11:07:31;22.50;99.90
12604;DHT22;6367;52.508;13.284;2022-10-16T11:10:03;22.80;99.90
12604;DHT22;6367;52.508;13.284;2022-10-16T11:12:35;22.90;99.90
12604;DHT22;6367;52.508;13.284;2022-10-16T11:15:18;23.00;99.90
12604;DHT22;6367;52.508;13.284;2022-10-16T11:17:54;23.00;99.90
12604;DHT22;6367;52.508;13.284;2022-10-16T11:20:32;23.10;99.90
12604;DHT22;6367;52.508;13.284;2022-10-16T11:23:07;23.00;99.90
12604;DHT22;6367;52.508;13.284;2022-10-16T11:25:39;23.00;99.90
12604;DHT22;6367;52.508;13.284;2022-10-16T11:28:11;22.90;99.90
12604;DHT22;6367;52.508;13.284;2022-10-16T11:34:15;22.90;99.90
12604;DHT22;6367;52.508;13.284;2022-10-16T11:37:11;22.90;99.90
12604;DHT22;6367;52.508;13.284;2022-10-16T11:39:35;22.80;99.90
12604;DHT22;6367;52.508;13.284;2022-10-16T11:42:27;22.70;99.90
12604;DHT22;6367;52.508;13.284;2022-10-16T11:47:40;22.70;99.90
12604;DHT22;6367;52.508;13.284;2022-10-16T11:50:28;22.70;99.90
12604;DHT22;6367;52.508;13.284;2022-10-16T11:55:40;22.80;99.90
12604;DHT22;6367;52.508;13.284;2022-10-16T11:58:24;22.90;99.90
12604;DHT22;6367;52.508;13.284;2022-10-16T12:01:10;22.80;99.90
12604;DHT22;6367;52.508;13.284;2022-10-16T12:06:37;22.60;99.90
12604;DHT22;6367;52.508;13.284;2022-10-16T12:09:03;22.60;99.90
12604;DHT22;6367;52.508;13.284;2022-10-16T12:16:50;22.40;99.90
12604;DHT22;6367;52.508;13.284;2022-10-16T12:19:17;22.40;99.90
12604;DHT22;6367;52.508;13.284;2022-10-16T12:21:43;22.60;99.90
12604;DHT22;6367;52.508;13.284;2022-10-16T12:24:27;22.70;99.80
12604;DHT22;6367;52.508;13.284;2022-10-16T12:26:54;22.80;99.60
12604;DHT22;6367;52.508;13.284;2022-10-16T12:29:37;23.20;99.60
12604;DHT22;6367;52.508;13.284;2022-10-16T12:35:17;23.00;98.90
12604;DHT22;6367;52.508;13.284;2022-10-16T12:37:44;23.00;98.50
12604;DHT22;6367;52.508;13.284;2022-10-16T12:40:36;23.10;98.30
12604;DHT22;6367;52.508;13.284;2022-10-16T12:45:46;23.00;97.80
12604;DHT22;6367;52.508;13.284;2022-10-16T12:48:21;23.00;97.60
12604;DHT22;6367;52.508;13.284;2022-10-16T12:50:47;23.00;97.70
12604;DHT22;6367;52.508;13.284;2022-10-16T12:53:24;23.10;97.60
12604;DHT22;6367;52.508;13.284;2022-10-16T13:03:52;23.10;97.30
12604;DHT22;6367;52.508;13.284;2022-10-16T13:17:26;23.00;96.30
12604;DHT22;6367;52.508;13.284;2022-10-16T13:25:37;23.10;96.00
12604;DHT22;6367;52.508;13.284;2022-10-16T13:28:08;23.10;95.90
12604;DHT22;6367;52.508;13.284;2022-10-16T13:30:50;23.50;95.90
12604;DHT22;6367;52.508;13.284;2022-10-16T13:33:20;22.90;95.70
12604;DHT22;6367;52.508;13.284;2022-10-16T13:35:55;23.00;95.00
12604;DHT22;6367;52.508;13.284;2022-10-16T13:38:23;22.90;95.30
12604;DHT22;6367;52.508;13.284;2022-10-16T13:43:39;22.90;95.30
12604;DHT22;6367;52.508;13.284;2022-10-16T13:46:15;23.10;95.20
12604;DHT22;6367;52.508;13.284;2022-10-16T13:48:41;23.00;94.90
12604;DHT22;6367;52.508;13.284;2022-10-16T13:51:17;23.00;94.80
12604;DHT22;6367;52.508;13.284;2022-10-16T13:53:44;23.00;94.80
12604;DHT22;6367;52.508;13.284;2022-10-16T13:56:16;22.90;94.60
12604;DHT22;6367;52.508;13.284;2022-10-16T13:58:42;23.00;94.40
12604;DHT22;6367;52.508;13.284;2022-10-16T14:01:17;23.10;94.80
12604;DHT22;6367;52.508;13.284;2022-10-16T14:03:44;22.90;94.70
12604;DHT22;6367;52.508;13.284;2022-10-16T14:06:16;23.30;95.10
12604;DHT22;6367;52.508;13.284;2022-10-16T14:08:45;22.80;95.00
12604;DHT22;6367;52.508;13.284;2022-10-16T14:11:12;22.70;95.20
12604;DHT22;6367;52.508;13.284;2022-10-16T14:13:45;22.60;95.30
12604;DHT22;6367;52.508;13.284;2022-10-16T14:16:17;22.60;95.30
12604;DHT22;6367;52.508;13.284;2022-10-16T14:18:46;22.60;95.50
12604;DHT22;6367;52.508;13.284;2022-10-16T14:21:16;22.60;95.60
12604;DHT22;6367;52.508;13.284;2022-10-16T14:23:42;22.60;95.60
12604;DHT22;6367;52.508;13.284;2022-10-16T14:28:35;22.70;95.80
12604;DHT22;6367;52.508;13.284;2022-10-16T14:31:03;23.20;95.90
12604;DHT22;6367;52.508;13.284;2022-10-16T14:33:45;22.70;95.80
12604;DHT22;6367;52.508;13.284;2022-10-16T14:36:11;22.60;95.90
12604;DHT22;6367;52.508;13.284;2022-10-16T14:39:34;22.60;96.00
12604;DHT22;6367;52.508;13.284;2022-10-16T14:41:43;22.50;96.10
12604;DHT22;6367;52.508;13.284;2022-10-16T14:44:11;22.50;96.20
12604;DHT22;6367;52.508;13.284;2022-10-16T14:46:41;22.40;96.20
12604;DHT22;6367;52.508;13.284;2022-10-16T14:51:41;22.40;96.30
12604;DHT22;6367;52.508;13.284;2022-10-16T14:54:08;22.40;96.40
12604;DHT22;6367;52.508;13.284;2022-10-16T14:56:52;22.30;96.40
12604;DHT22;6367;52.508;13.284;2022-10-16T14:59:37;22.30;96.30
12604;DHT22;6367;52.508;13.284;2022-10-16T15:02:30;22.30;95.90
12604;DHT22;6367;52.508;13.284;2022-10-16T15:04:57;22.20;96.10
12604;DHT22;6367;52.508;13.284;2022-10-16T15:07:23;22.20;95.90
12604;DHT22;6367;52.508;13.284;2022-10-16T15:09:48;22.10;95.90
12604;DHT22;6367;52.508;13.284;2022-10-16T15:12:14;22.70;95.90
12604;DHT22;6367;52.508;13.284;2022-10-16T15:14:40;22.20;95.50
12604;DHT22;6367;52.508;13.284;2022-10-16T15:17:07;22.10;95.30
12604;DHT22;6367;52.508;13.284;2022-10-16T15:19:33;22.10;95.30
12604;DHT22;6367;52.508;13.284;2022-10-16T15:21:59;22.10;95.30
12604;DHT22;6367;52.508;13.284;2022-10-16T15:24:25;22.10;95.30
12604;DHT22;6367;52.508;13.284;2022-10-16T15:26:50;22.00;95.30
12604;DHT22;6367;52.508;13.284;2022-10-16T15:29:16;22.10;95.30
12604;DHT22;6367;52.508;13.284;2022-10-16T15:31:41;22.00;95.30
12604;DHT22;6367;52.508;13.284;2022-10-16T15:34:13;22.00;95.10
12604;DHT22;6367;52.508;13.284;2022-10-16T15:36:39;22.00;95.20
12604;DHT22;6367;52.508;13.284;2022-10-16T15:39:12;21.90;95.20
12604;DHT22;6367;52.508;13.284;2022-10-16T15:41:39;22.20;95.50
12604;DHT22;6367;52.508;13.284;2022-10-16T15:44:04;21.90;95.30
12604;DHT22;6367;52.508;13.284;2022-10-16T15:46:30;21.80;95.20
12604;DHT22;6367;52.508;13.284;2022-10-16T15:48:57;21.80;95.20
12604;DHT22;6367;52.508;13.284;2022-10-16T15:51:24;21.70;95.30
12604;DHT22;6367;52.508;13.284;2022-10-16T15:53:50;21.70;95.40
12604;DHT22;6367;52.508;13.284;2022-10-16T15:56:17;21.60;95.40
12604;DHT22;6367;52.508;13.284;2022-10-16T15:58:43;21.60;95.90
12604;DHT22;6367;52.508;13.284;2022-10-16T16:01:09;21.50;95.60
12604;DHT22;6367;52.508;13.284;2022-10-16T16:03:36;21.50;95.60
12604;DHT22;6367;52.508;13.284;2022-10-16T16:06:07;21.60;95.60
12604;DHT22;6367;52.508;13.284;2022-10-16T16:08:33;21.50;95.60
12604;DHT22;6367;52.508;13.284;2022-10-16T16:11:10;21.50;95.60
12604;DHT22;6367;52.508;13.284;2022-10-16T16:13:36;21.40;95.60
12604;DHT22;6367;52.508;13.284;2022-10-16T16:16:11;21.30;95.60
12604;DHT22;6367;52.508;13.284;2022-10-16T16:18:37;21.30;95.70
12604;DHT22;6367;52.508;13.284;2022-10-16T16:21:03;21.40;95.90
12604;DHT22;6367;52.508;13.284;2022-10-16T16:23:29;21.30;95.90
12604;DHT22;6367;52.508;13.284;2022-10-16T16:26:09;21.30;95.80
12604;DHT22;6367;52.508;13.284;2022-10-16T16:28:36;21.20;95.80
12604;DHT22;6367;52.508;13.284;2022-10-16T16:31:02;21.20;95.80
12604;DHT22;6367;52.508;13.284;2022-10-16T16:33:28;21.20;95.70
12604;DHT22;6367;52.508;13.284;2022-10-16T16:35:59;21.50;95.80
12604;DHT22;6367;52.508;13.284;2022-10-16T16:38:26;21.40;95.70
12604;DHT22;6367;52.508;13.284;2022-10-16T16:40:52;21.10;95.50
12604;DHT22;6367;52.508;13.284;2022-10-16T16:43:19;21.00;95.60
12604;DHT22;6367;52.508;13.284;2022-10-16T16:45:44;21.00;95.60
12604;DHT22;6367;52.508;13.284;2022-10-16T16:48:13;20.90;95.60
12604;DHT22;6367;52.508;13.284;2022-10-16T16:50:38;20.90;95.60
12604;DHT22;6367;52.508;13.284;2022-10-16T16:53:04;20.90;95.60
12604;DHT22;6367;52.508;13.284;2022-10-16T16:55:29;21.10;95.70
12604;DHT22;6367;52.508;13.284;2022-10-16T16:57:55;20.80;95.60
12604;DHT22;6367;52.508;13.284;2022-10-16T17:00:22;20.70;95.70
12604;DHT22;6367;52.508;13.284;2022-10-16T17:02:49;20.70;95.80
12604;DHT22;6367;52.508;13.284;2022-10-16T17:05:15;20.70;95.90
12604;DHT22;6367;52.508;13.284;2022-10-16T17:07:40;20.60;95.90
12604;DHT22;6367;52.508;13.284;2022-10-16T17:10:06;20.60;96.00
12604;DHT22;6367;52.508;13.284;2022-10-16T17:12:32;20.60;96.10
12604;DHT22;6367;52.508;13.284;2022-10-16T17:14:58;20.60;96.10
12604;DHT22;6367;52.508;13.284;2022-10-16T17:17:24;20.50;96.00
12604;DHT22;6367;52.508;13.284;2022-10-16T17:19:50;20.50;96.10
12604;DHT22;6367;52.508;13.284;2022-10-16T17:22:18;20.50;96.00
12604;DHT22;6367;52.508;13.284;2022-10-16T17:24:43;20.50;96.10
12604;DHT22;6367;52.508;13.284;2022-10-16T17:27:09;20.40;96.20
12604;DHT22;6367;52.508;13.284;2022-10-16T17:29:37;20.50;96.40
12604;DHT22;6367;52.508;13.284;2022-10-16T17:32:03;20.40;96.40
12604;DHT22;6367;52.508;13.284;2022-10-16T17:34:28;20.40;96.50
12604;DHT22;6367;52.508;13.284;2022-10-16T17:36:54;20.30;96.70
12604;DHT22;6367;52.508;13.284;2022-10-16T17:39:19;20.70;97.00